Time;durP1;ratioP1;P1;durP2;ratioP2;P2;SDS_P1;SDS_P2;PMS_P1;PMS_P2;Temp;Humidity;BMP_temperature;BMP_pressure;BME280_temperature;BME280_humidity;BME280_pressure;Samples;Min_cycle;Max_cycle;Signal;HPM_P1;HPM_P2
2021/07/08 00:01:23;;;;;;;;;;;15.00;99.90;;;;;;5053625;28;20120;-77
2021/07/08 00:03:49;;;;;;;;;;;15.10;99.90;;;;;;5054928;28;19944;-76
2021/07/08 00:06:15;;;;;;;;;;;15.00;99.90;;;;;;5054830;28;19958;-78
2021/07/08 00:08:40;;;;;;;;;;;14.80;99.90;;;;;;5054727;28;19904;-77
2021/07/08 00:11:06;;;;;;;13.60;4.53;;;14.70;99.90;;;;;;5052919;28;19905;-78
2021/07/08 00:13:32;;;;;;;13.70;4.18;;;14.70;99.90;;;;;;5054420;28;20033;-78
2021/07/08 00:15:58;;;;;;;15.10;5.18;;;14.70;99.90;;;;;;5054152;28;20028;-77
2021/07/08 00:18:24;;;;;;;;;;;14.70;99.90;;;;;;5054454;28;20393;-78
2021/07/08 00:20:50;;;;;;;15.75;4.65;;;14.70;99.90;;;;;;5054050;28;19909;-77
2021/07/08 00:23:18;;;;;;;11.10;4.07;;;14.70;99.90;;;;;;5053893;28;20041;-77
2021/07/08 00:25:45;;;;;;;11.63;4.90;;;14.70;99.90;;;;;;5054241;28;20021;-78
2021/07/08 00:28:15;;;;;;;12.20;3.72;;;14.70;99.90;;;;;;5052614;28;20021;-78
2021/07/08 00:30:43;;;;;;;10.65;4.13;;;14.80;99.90;;;;;;5054189;28;20376;-78
2021/07/08 00:33:09;;;;;;;12.75;4.30;;;14.70;99.90;;;;;;5053809;28;20027;-77
2021/07/08 00:35:36;;;;;;;9.20;4.10;;;14.90;99.90;;;;;;5053610;28;20078;-78
2021/07/08 00:38:04;;;;;;;11.95;4.57;;;14.80;99.90;;;;;;5052159;28;20049;-78
2021/07/08 00:40:30;;;;;;;11.05;3.95;;;14.90;99.90;;;;;;5052328;28;20035;-76
2021/07/08 00:42:56;;;;;;;;;;;15.00;99.90;;;;;;5054044;28;20393;-77
2021/07/08 00:45:23;;;;;;;13.52;4.40;;;15.00;99.90;;;;;;5053870;28;20373;-77
2021/07/08 00:47:49;;;;;;;18.15;5.30;;;14.90;99.90;;;;;;5053531;28;20033;-79
2021/07/08 00:50:16;;;;;;;;;;;14.80;99.90;;;;;;5053903;28;20019;-77
2021/07/08 00:52:42;;;;;;;11.10;3.97;;;14.80;99.90;;;;;;5053539;28;19908;-78
2021/07/08 00:55:10;;;;;;;11.35;3.83;;;14.90;99.90;;;;;;5052108;28;20033;-78
2021/07/08 00:57:40;;;;;;;12.32;4.60;;;14.90;99.90;;;;;;5053358;28;20036;-79
2021/07/08 01:00:07;;;;;;;13.90;4.57;;;14.80;99.90;;;;;;5053442;28;20039;-76
2021/07/08 01:02:34;;;;;;;13.73;4.53;;;14.80;99.90;;;;;;5053262;28;20021;-77
2021/07/08 01:05:00;;;;;;;14.18;4.28;;;14.70;99.90;;;;;;5053273;28;20032;-78
2021/07/08 01:07:26;;;;;;;12.85;4.38;;;14.60;99.90;;;;;;5053210;28;20025;-78
2021/07/08 01:09:52;;;;;;;12.45;4.10;;;14.60;99.90;;;;;;5051920;28;20025;-76
2021/07/08 01:12:19;;;;;;;14.73;4.82;;;14.70;99.90;;;;;;5053192;28;20020;-76
2021/07/08 01:14:45;;;;;;;10.63;4.47;;;14.70;99.90;;;;;;5053122;28;20485;-78
2021/07/08 01:17:11;;;;;;;;;;;14.60;99.90;;;;;;5053678;28;20028;-77
2021/07/08 01:19:38;;;;;;;12.60;4.80;;;14.80;99.90;;;;;;5051685;28;19905;-78
2021/07/08 01:22:04;;;;;;;10.00;3.80;;;14.80;99.90;;;;;;5053174;28;20104;-78
2021/07/08 01:24:34;;;;;;;9.32;3.55;;;14.80;99.90;;;;;;5052943;28;20048;-77
2021/07/08 01:27:00;;;;;;;10.18;3.55;;;15.00;99.90;;;;;;5052942;28;20032;-77
2021/07/08 01:29:27;;;;;;;10.93;4.03;;;14.90;99.90;;;;;;5051667;28;20366;-78
2021/07/08 01:31:53;;;;;;;12.18;3.50;;;15.00;99.90;;;;;;5053064;28;20036;-77
2021/07/08 01:34:19;;;;;;;11.73;4.68;;;15.00;99.90;;;;;;5052968;28;20025;-77
2021/07/08 01:36:46;;;;;;;;;;;14.80;99.90;;;;;;5051832;28;20539;-79
2021/07/08 01:39:12;;;;;;;14.38;4.22;;;14.60;99.90;;;;;;5053321;28;19909;-77
2021/07/08 01:41:37;;;;;;;;;;;14.50;99.90;;;;;;5053252;28;20047;-77
2021/07/08 01:44:03;;;;;;;10.32;3.78;;;14.70;99.90;;;;;;5052836;28;20358;-76
2021/07/08 01:46:29;;;;;;;;;;;14.90;99.90;;;;;;5054076;28;20060;-78
2021/07/08 01:48:55;;;;;;;9.73;4.43;;;14.90;99.90;;;;;;5056921;28;20336;-77
2021/07/08 01:51:27;;;;;;;16.33;4.82;;;14.80;99.90;;;;;;5057034;28;20510;-78
2021/07/08 01:53:53;;;;;;;15.88;4.80;;;14.60;99.90;;;;;;5057058;28;20481;-77
2021/07/08 01:56:19;;;;;;;9.05;4.18;;;14.50;99.90;;;;;;5055532;28;20025;-78
2021/07/08 01:58:45;;;;;;;11.07;4.47;;;14.60;99.90;;;;;;5056768;28;20037;-79
2021/07/08 02:01:11;;;;;;;10.60;3.80;;;14.70;99.90;;;;;;5056645;28;20049;-78
2021/07/08 02:03:37;;;;;;;11.70;4.70;;;14.80;99.90;;;;;;5056633;28;20033;-78
2021/07/08 02:06:04;;;;;;;16.05;4.85;;;14.80;99.90;;;;;;5056516;28;20496;-77
2021/07/08 02:08:30;;;;;;;10.68;4.25;;;14.70;99.90;;;;;;5056570;28;20454;-77
2021/07/08 02:10:56;;;;;;;11.93;4.45;;;14.80;99.90;;;;;;5056524;28;20100;-75
2021/07/08 02:13:22;;;;;;;;;;;14.90;99.90;;;;;;5056980;28;20112;-76
2021/07/08 02:15:48;;;;;;;12.43;4.82;;;14.90;99.90;;;;;;5056387;28;20285;-78
2021/07/08 02:18:13;;;;;;;12.18;4.57;;;14.70;99.90;;;;;;5056377;28;20100;-78
2021/07/08 02:20:39;;;;;;;17.75;4.60;;;14.80;99.90;;;;;;5056309;28;20037;-78
2021/07/08 02:23:06;;;;;;;10.77;4.45;;;14.90;99.90;;;;;;5056630;28;20057;-78
2021/07/08 02:25:32;;;;;;;13.77;4.93;;;14.90;99.90;;;;;;5054822;28;20485;-76
2021/07/08 02:27:58;;;;;;;14.25;4.28;;;14.80;99.90;;;;;;5056200;28;20032;-77
2021/07/08 02:30:25;;;;;;;13.38;4.97;;;14.70;99.90;;;;;;5056175;28;20017;-77
2021/07/08 02:32:53;;;;;;;17.50;5.00;;;14.70;99.90;;;;;;5054746;28;20025;-77
2021/07/08 02:35:20;;;;;;;16.23;4.68;;;14.60;99.90;;;;;;5056051;28;20055;-79
2021/07/08 02:37:46;;;;;;;13.13;4.63;;;14.70;99.90;;;;;;5055769;28;20045;-78
2021/07/08 02:40:14;;;;;;;;;;;14.70;99.90;;;;;;5056354;28;20497;-76
2021/07/08 02:42:40;;;;;;;14.05;5.20;;;14.70;99.90;;;;;;5055903;28;19935;-78
2021/07/08 02:45:08;;;;;;;13.82;5.15;;;14.70;99.90;;;;;;5056222;28;20539;-78
2021/07/08 02:47:34;;;;;;;13.20;5.07;;;14.70;99.90;;;;;;5055727;28;20025;-78
2021/07/08 02:50:00;;;;;;;;;;;14.60;99.90;;;;;;5056221;28;20078;-78
2021/07/08 02:52:25;;;;;;;15.93;5.20;;;14.50;99.90;;;;;;5055818;28;20319;-78
2021/07/08 02:54:51;;;;;;;17.88;5.45;;;14.40;99.90;;;;;;5055969;28;20055;-78
2021/07/08 02:57:17;;;;;;;13.65;4.90;;;14.40;99.90;;;;;;5053918;28;20040;-77
2021/07/08 02:59:43;;;;;;;15.13;5.82;;;14.40;99.90;;;;;;5055705;28;20029;-77
2021/07/08 03:02:09;;;;;;;16.00;5.60;;;14.30;99.90;;;;;;5055664;28;20044;-77
2021/07/08 03:04:35;;;;;;;16.90;5.70;;;14.20;99.90;;;;;;5055572;28;20489;-78
2021/07/08 03:07:01;;;;;;;11.55;5.13;;;14.20;99.90;;;;;;5055661;28;20029;-76
2021/07/08 03:09:26;;;;;;;15.25;6.05;;;14.40;99.90;;;;;;5054229;28;20021;-77
2021/07/08 03:11:52;;;;;;;10.73;4.32;;;14.50;99.90;;;;;;5055597;28;20076;-78
2021/07/08 03:14:18;;;;;;;14.82;5.10;;;14.50;99.90;;;;;;5055500;28;20040;-77
2021/07/08 03:16:44;;;;;;;12.90;5.25;;;14.50;99.90;;;;;;5055384;28;20033;-78
2021/07/08 03:19:09;;;;;;;14.07;4.72;;;14.50;99.90;;;;;;5055376;28;20477;-77
2021/07/08 03:21:37;;;;;;;16.08;5.35;;;14.60;99.90;;;;;;5055439;28;20037;-77
2021/07/08 03:24:03;;;;;;;17.85;5.57;;;14.60;99.90;;;;;;5055203;28;20017;-77
2021/07/08 03:26:29;;;;;;;12.30;4.93;;;14.70;99.90;;;;;;5054987;28;20107;-77
2021/07/08 03:28:55;;;;;;;15.23;4.90;;;14.50;99.90;;;;;;5055539;28;20101;-78
2021/07/08 03:31:22;;;;;;;16.17;5.85;;;14.60;99.90;;;;;;5055247;28;20029;-77
2021/07/08 03:33:48;;;;;;;13.68;4.57;;;14.30;99.90;;;;;;5055099;28;20397;-79
2021/07/08 03:36:14;;;;;;;12.73;5.38;;;14.40;99.90;;;;;;5055125;28;20059;-79
2021/07/08 03:38:39;;;;;;;11.23;5.10;;;14.20;99.90;;;;;;5054588;28;20067;-79
2021/07/08 03:41:05;;;;;;;16.75;5.63;;;14.10;99.90;;;;;;5054967;28;20032;-78
2021/07/08 03:43:31;;;;;;;15.30;5.25;;;13.90;99.90;;;;;;5054911;28;20021;-77
2021/07/08 03:45:57;;;;;;;12.38;5.40;;;13.70;99.90;;;;;;5053511;28;20041;-77
2021/07/08 03:48:22;;;;;;;14.30;5.78;;;13.80;99.90;;;;;;5054827;28;20013;-78
2021/07/08 03:50:48;;;;;;;11.60;4.80;;;13.70;99.90;;;;;;5054759;28;20029;-77
2021/07/08 03:53:14;;;;;;;13.55;5.45;;;13.90;99.90;;;;;;5054852;28;20024;-78
2021/07/08 03:55:39;;;;;;;11.63;5.57;;;13.90;99.90;;;;;;5054708;28;20052;-76
2021/07/08 03:58:05;;;;;;;12.90;5.47;;;13.90;99.90;;;;;;5054660;28;20078;-76
2021/07/08 04:00:37;;;;;;;11.65;4.80;;;13.80;99.90;;;;;;5055036;28;20115;-77
2021/07/08 04:03:05;;;;;;;10.90;4.97;;;13.90;99.90;;;;;;5054713;28;20021;-77
2021/07/08 04:05:32;;;;;;;12.57;5.15;;;13.80;99.90;;;;;;5054481;28;20028;-78
2021/07/08 04:07:57;;;;;;;;;;;13.70;99.90;;;;;;5054901;28;20067;-78
2021/07/08 04:10:23;;;;;;;11.13;4.93;;;13.70;99.90;;;;;;5053559;28;19908;-78
2021/07/08 04:12:49;;;;;;;11.77;5.15;;;13.80;99.90;;;;;;5053370;28;20087;-77
2021/07/08 04:15:15;;;;;;;14.20;4.95;;;13.90;99.90;;;;;;5054318;28;20489;-76
2021/07/08 04:17:41;;;;;;;10.70;4.68;;;14.20;99.90;;;;;;5054389;28;20025;-78
2021/07/08 04:20:10;;;;;;;17.08;5.30;;;14.20;99.90;;;;;;5054224;28;20033;-77
2021/07/08 04:22:36;;;;;;;13.27;5.97;;;14.10;99.90;;;;;;5054499;28;20439;-77
2021/07/08 04:25:02;;;;;;;;;;;14.20;99.90;;;;;;5054567;28;20025;-77
2021/07/08 04:27:28;;;;;;;13.15;5.45;;;14.10;99.90;;;;;;5054077;28;19913;-77
2021/07/08 04:29:54;;;;;;;11.02;5.13;;;14.20;99.90;;;;;;5054043;28;20092;-77
2021/07/08 04:32:19;;;;;;;18.50;6.20;;;14.30;99.90;;;;;;5053989;28;20557;-77
2021/07/08 04:34:45;;;;;;;16.17;5.65;;;14.40;99.90;;;;;;5054158;28;20017;-76
2021/07/08 04:37:11;;;;;;;15.02;4.70;;;14.40;99.90;;;;;;5053767;28;20060;-77
2021/07/08 04:39:37;;;;;;;11.90;4.65;;;14.60;99.90;;;;;;5054006;28;20401;-79
2021/07/08 04:42:03;;;;;;;11.52;4.47;;;14.80;99.90;;;;;;5053839;28;20052;-78
2021/07/08 04:44:29;;;;;;;15.18;4.70;;;14.70;99.90;;;;;;5053723;28;20535;-78
2021/07/08 04:46:54;;;;;;;14.18;4.43;;;14.90;99.90;;;;;;5053637;28;20053;-78
2021/07/08 04:49:20;;;;;;;11.77;5.35;;;15.10;99.90;;;;;;5053721;28;20017;-76
2021/07/08 04:51:46;;;;;;;10.98;5.03;;;15.10;99.90;;;;;;5053705;28;20051;-77
2021/07/08 04:54:11;;;;;;;;;;;14.90;99.90;;;;;;5053989;28;20044;-77
2021/07/08 04:56:37;;;;;;;13.38;5.40;;;14.80;99.90;;;;;;5053743;28;19904;-77
2021/07/08 04:59:03;;;;;;;;;;;14.60;99.90;;;;;;5053975;28;20029;-78
2021/07/08 05:01:29;;;;;;;13.85;5.50;;;14.70;99.90;;;;;;5053451;28;19908;-77
2021/07/08 05:03:58;;;;;;;17.08;5.93;;;14.60;99.90;;;;;;5053248;28;20074;-77
2021/07/08 05:06:24;;;;;;;18.95;5.88;;;14.60;99.90;;;;;;5053589;28;20040;-78
2021/07/08 05:08:50;;;;;;;;;;;14.70;99.90;;;;;;5053635;28;20508;-77
2021/07/08 05:11:16;;;;;;;14.88;5.22;;;14.70;99.90;;;;;;5053300;28;19905;-78
2021/07/08 05:13:41;;;;;;;14.77;6.30;;;14.80;99.90;;;;;;5053231;28;20024;-77
2021/07/08 05:16:07;;;;;;;15.07;6.20;;;14.70;99.90;;;;;;5053142;28;20029;-78
2021/07/08 05:18:33;;;;;;;17.15;6.45;;;14.70;99.90;;;;;;5053489;28;20027;-77
2021/07/08 05:21:00;;;;;;;;;;;14.60;99.90;;;;;;5053441;28;20121;-77
2021/07/08 05:23:27;;;;;;;12.88;5.50;;;14.70;99.90;;;;;;5053113;28;19928;-78
2021/07/08 05:25:53;;;;;;;15.65;5.68;;;14.80;99.90;;;;;;5053035;28;20023;-78
2021/07/08 05:28:19;;;;;;;19.60;7.10;;;15.00;99.90;;;;;;5053300;28;20550;-78
2021/07/08 05:30:45;;;;;;;13.70;6.40;;;14.80;99.90;;;;;;5053120;28;20029;-76
2021/07/08 05:33:11;;;;;;;12.13;5.65;;;14.80;99.90;;;;;;5052909;28;20025;-78
2021/07/08 05:35:37;;;;;;;14.05;5.47;;;15.30;99.90;;;;;;5052972;28;20078;-77
2021/07/08 05:38:05;;;;;;;;;;;15.30;99.90;;;;;;5052061;28;20056;-77
2021/07/08 05:40:31;;;;;;;14.95;6.10;;;15.50;99.90;;;;;;5053381;28;19967;-79
2021/07/08 05:42:57;;;;;;;17.23;5.95;;;15.40;99.90;;;;;;5052964;28;20469;-77
2021/07/08 05:45:23;;;;;;;15.07;6.22;;;15.30;99.90;;;;;;5053036;28;20511;-78
2021/07/08 05:47:49;;;;;;;;;;;15.40;99.90;;;;;;5053375;28;20033;-78
2021/07/08 05:50:16;;;;;;;14.77;5.97;;;15.40;99.90;;;;;;5052877;28;19904;-78
2021/07/08 05:52:42;;;;;;;13.82;5.97;;;15.60;99.90;;;;;;5052929;28;20017;-78
2021/07/08 05:55:08;;;;;;;13.55;6.40;;;15.70;99.90;;;;;;5051642;28;20124;-78
2021/07/08 05:57:34;;;;;;;18.77;6.50;;;15.60;99.90;;;;;;5052798;28;20031;-77
2021/07/08 06:00:00;;;;;;;16.27;7.53;;;15.40;99.90;;;;;;5053277;28;20026;-76
2021/07/08 06:02:26;;;;;;;20.33;6.18;;;15.40;99.90;;;;;;5053246;28;20036;-79
2021/07/08 06:04:52;;;;;;;;;;;15.50;99.90;;;;;;5053536;28;20075;-78
2021/07/08 06:07:17;;;;;;;15.55;5.88;;;15.60;99.90;;;;;;5052809;28;19995;-78
2021/07/08 06:09:43;;;;;;;;;;;15.60;99.90;;;;;;5053230;28;20381;-78
2021/07/08 06:12:09;;;;;;;15.57;6.00;;;15.60;99.90;;;;;;5053201;28;19931;-78
2021/07/08 06:14:34;;;;;;;;;;;15.80;99.90;;;;;;5053154;28;20017;-77
2021/07/08 06:17:01;;;;;;;17.85;6.00;;;16.00;99.90;;;;;;5052849;28;19909;-78
2021/07/08 06:19:27;;;;;;;16.00;6.40;;;16.10;99.90;;;;;;5052699;28;20485;-76
2021/07/08 06:21:53;;;;;;;12.80;5.35;;;16.10;99.90;;;;;;5052601;28;20389;-77
2021/07/08 06:24:19;;;;;;;;;;;16.20;99.90;;;;;;5052982;28;20029;-78
2021/07/08 06:26:45;;;;;;;15.55;5.70;;;16.40;99.90;;;;;;5052514;28;19999;-78
2021/07/08 06:29:11;;;;;;;14.73;5.80;;;16.40;99.90;;;;;;5052806;28;20396;-78
2021/07/08 06:31:37;;;;;;;14.20;4.82;;;16.40;99.90;;;;;;5052555;28;20016;-78
2021/07/08 06:34:05;;;;;;;;;;;16.70;99.90;;;;;;5054830;28;20029;-78
2021/07/08 06:36:31;;;;;;;14.90;5.22;;;16.70;99.90;;;;;;5056157;28;19905;-78
2021/07/08 06:38:57;;;;;;;12.48;5.60;;;17.00;99.90;;;;;;5055705;28;20056;-79
2021/07/08 06:41:23;;;;;;;;;;;17.20;99.90;;;;;;5056719;28;20100;-78
2021/07/08 06:43:48;;;;;;;15.90;5.97;;;17.10;99.90;;;;;;5056051;28;19927;-76
2021/07/08 06:46:17;;;;;;;;;;;17.00;99.90;;;;;;5056339;28;20074;-79
2021/07/08 06:48:44;;;;;;;16.63;6.35;;;16.70;99.90;;;;;;5056166;28;19959;-77
2021/07/08 06:51:10;;;;;;;14.20;6.47;;;16.60;99.90;;;;;;5054612;28;20017;-78
2021/07/08 06:53:38;;;;;;;16.85;6.82;;;16.80;99.90;;;;;;5055898;28;20017;-76
2021/07/08 06:56:05;;;;;;;16.90;7.63;;;16.50;99.90;;;;;;5055756;28;20025;-80
2021/07/08 06:58:30;;;;;;;22.05;8.15;;;16.60;99.90;;;;;;5055772;28;20053;-79
2021/07/08 07:00:56;;;;;;;;;;;16.50;99.90;;;;;;5056152;28;20049;-77
2021/07/08 07:03:22;;;;;;;17.77;7.13;;;16.90;99.90;;;;;;5055642;28;19959;-77
2021/07/08 07:05:48;;;;;;;17.67;7.53;;;16.80;99.90;;;;;;5055579;28;20029;-78
2021/07/08 07:08:14;;;;;;;;;;;16.80;99.90;;;;;;5055519;28;20218;-79
2021/07/08 07:10:39;;;;;;;17.50;7.78;;;16.80;99.90;;;;;;5055321;28;19909;-78
2021/07/08 07:13:09;;;;;;;;;;;16.90;99.90;;;;;;5055762;28;20017;-79
2021/07/08 07:15:35;;;;;;;24.85;9.18;;;16.60;99.90;;;;;;5055591;28;20327;-78
2021/07/08 07:18:04;;;;;;;;;;;16.60;99.90;;;;;;5055678;28;20044;-78
2021/07/08 07:20:30;;;;;;;19.25;8.40;;;16.70;99.90;;;;;;5055271;28;19909;-77
2021/07/08 07:22:55;;;;;;;;;;;16.70;99.90;;;;;;5055576;28;20424;-80
2021/07/08 07:25:24;;;;;;;20.45;8.75;;;16.80;99.90;;;;;;5055148;28;19912;-78
2021/07/08 07:27:52;;;;;;;18.33;8.20;;;16.80;99.90;;;;;;5055080;28;20024;-79
2021/07/08 07:30:19;;;;;;;16.77;7.40;;;16.80;99.90;;;;;;5055612;28;20139;-79
2021/07/08 07:32:45;;;;;;;20.15;8.10;;;17.00;99.90;;;;;;5055158;28;20416;-80
2021/07/08 07:35:12;;;;;;;16.85;7.50;;;17.10;99.90;;;;;;5054976;28;20021;-76
2021/07/08 07:37:38;;;;;;;16.77;7.88;;;17.00;99.90;;;;;;5055028;28;20053;-79
2021/07/08 07:40:05;;;;;;;21.17;8.88;;;17.20;99.90;;;;;;5054921;28;20025;-77
2021/07/08 07:42:34;;;;;;;20.38;8.77;;;17.10;99.90;;;;;;5054963;28;20021;-79
2021/07/08 07:45:00;;;;;;;15.45;8.10;;;17.10;99.90;;;;;;5053711;28;20485;-78
2021/07/08 07:47:28;;;;;;;15.88;8.20;;;17.10;99.90;;;;;;5055107;28;20029;-80
2021/07/08 07:49:54;;;;;;;21.75;9.25;;;17.10;99.90;;;;;;5054813;28;20018;-79
2021/07/08 07:52:20;;;;;;;22.65;8.57;;;17.20;99.90;;;;;;5053454;28;20067;-79
2021/07/08 07:54:46;;;;;;;16.40;8.70;;;17.40;99.90;;;;;;5054704;28;20378;-79
2021/07/08 07:57:12;;;;;;;19.15;9.00;;;17.30;99.90;;;;;;5054652;28;20033;-79
2021/07/08 07:59:38;;;;;;;;;;;17.40;99.90;;;;;;5054681;28;20489;-78
2021/07/08 08:02:10;;;;;;;19.38;8.60;;;17.50;99.90;;;;;;5054564;28;19995;-77
2021/07/08 08:04:42;;;;;;;17.30;8.23;;;17.40;99.90;;;;;;5054665;28;20456;-77
2021/07/08 08:09:54;;;;;;;18.65;8.80;;;18.10;99.30;;;;;;5054350;28;20032;-78
2021/07/08 08:12:20;;;;;;;19.08;9.57;;;18.10;99.00;;;;;;5054925;28;20021;-78
2021/07/08 08:14:47;;;;;;;19.95;9.57;;;17.80;99.20;;;;;;5054493;28;20021;-79
2021/07/08 08:17:12;;;;;;;21.50;10.43;;;17.40;99.80;;;;;;5054243;28;20481;-78
2021/07/08 08:19:38;;;;;;;22.08;8.88;;;17.70;99.40;;;;;;5054159;28;20021;-78
2021/07/08 08:22:06;;;;;;;15.00;7.75;;;17.90;99.90;;;;;;5054430;28;20032;-79
2021/07/08 08:24:32;;;;;;;16.17;8.27;;;18.30;99.00;;;;;;5053919;28;20025;-79
2021/07/08 08:26:57;;;;;;;19.77;8.80;;;18.60;98.20;;;;;;5053972;28;20021;-78
2021/07/08 08:29:25;;;;;;;23.75;8.93;;;18.60;97.70;;;;;;5053979;28;20025;-79
2021/07/08 08:31:51;;;;;;;15.45;7.88;;;18.30;98.40;;;;;;5053855;28;20017;-79
2021/07/08 08:34:16;;;;;;;20.58;8.32;;;18.20;98.90;;;;;;5054337;28;20044;-78
2021/07/08 08:36:44;;;;;;;19.13;9.52;;;18.50;97.90;;;;;;5053595;28;20021;-79
2021/07/08 08:39:10;;;;;;;19.50;8.27;;;18.40;98.30;;;;;;5053787;28;20044;-78
2021/07/08 08:41:36;;;;;;;17.77;9.30;;;18.10;98.20;;;;;;5053827;28;20029;-79
2021/07/08 08:44:02;;;;;;;22.50;9.15;;;18.20;97.80;;;;;;5053712;28;20029;-79
2021/07/08 08:46:28;;;;;;;21.95;8.90;;;17.90;98.20;;;;;;5053578;28;20104;-79
2021/07/08 08:48:53;;;;;;;20.98;8.77;;;18.10;98.80;;;;;;5053674;28;20028;-79
2021/07/08 08:51:20;;;;;;;14.85;7.50;;;18.00;97.60;;;;;;5053601;28;20021;-78
2021/07/08 08:53:45;;;;;;;14.15;7.53;;;18.50;97.70;;;;;;5053542;28;20440;-78
2021/07/08 08:56:11;;;;;;;15.88;7.93;;;18.80;96.40;;;;;;5053138;28;20021;-79
2021/07/08 08:58:37;;;;;;;18.73;7.60;;;18.80;95.90;;;;;;5054090;28;20033;-77
2021/07/08 09:01:06;;;;;;;17.02;7.40;;;19.00;95.20;;;;;;5053347;28;20032;-78
2021/07/08 09:03:34;;;;;;;17.27;7.20;;;19.10;95.60;;;;;;5053370;28;20029;-78
2021/07/08 09:06:06;;;;;;;14.20;7.00;;;19.20;95.70;;;;;;5052011;28;20067;-78
2021/07/08 09:08:59;;;;;;;16.10;7.65;;;19.30;94.40;;;;;;5051758;28;20173;-80
2021/07/08 09:11:26;;;;;;;17.10;6.72;;;19.40;94.20;;;;;;5048887;28;20044;-79
2021/07/08 09:14:02;;;;;;;14.68;7.10;;;19.70;94.00;;;;;;5053195;28;20043;-79
2021/07/08 09:16:29;;;;;;;15.48;7.78;;;19.90;94.30;;;;;;5053218;28;20025;-79
2021/07/08 09:19:19;;;;;;;18.15;7.00;;;20.10;93.10;;;;;;5053122;28;20397;-79
2021/07/08 09:21:56;;;;;;;16.40;7.20;;;20.10;93.00;;;;;;5053117;28;20481;-78
2021/07/08 09:24:25;;;;;;;14.40;6.60;;;19.70;93.20;;;;;;5053102;28;20468;-78
2021/07/08 09:27:08;;;;;;;12.80;6.90;;;20.30;92.60;;;;;;5052998;28;20084;-79
2021/07/08 09:29:36;;;;;;;15.45;7.07;;;20.40;91.90;;;;;;5053367;28;20078;-79
2021/07/08 09:32:10;;;;;;;17.00;6.65;;;20.40;92.50;;;;;;5053166;28;20024;-77
2021/07/08 09:34:39;;;;;;;15.23;6.10;;;20.60;91.90;;;;;;5053197;28;20055;-78
2021/07/08 09:37:04;;;;;;;13.40;6.15;;;21.00;91.60;;;;;;5052545;28;20037;-78
2021/07/08 09:39:48;;;;;;;11.98;6.55;;;21.40;90.80;;;;;;5053212;28;20056;-80
2021/07/08 09:42:16;;;;;;;14.75;5.57;;;22.10;89.90;;;;;;5053500;28;20017;-79
2021/07/08 09:44:42;;;;;;;13.55;5.97;;;22.10;87.90;;;;;;5053074;28;20020;-78
2021/07/08 09:47:27;;;;;;;16.33;6.00;;;21.40;88.90;;;;;;5052776;28;20025;-77
2021/07/08 09:49:53;;;;;;;12.05;5.30;;;21.30;87.90;;;;;;5052790;28;20021;-79
2021/07/08 09:52:19;;;;;;;13.43;5.97;;;21.70;89.10;;;;;;5052829;28;20033;-78
2021/07/08 09:57:32;;;;;;;14.20;5.90;;;22.40;85.40;;;;;;5052705;28;20025;-81
2021/07/08 09:59:59;;;;;;;12.20;5.13;;;22.80;83.30;;;;;;5052745;28;20547;-79
2021/07/08 10:02:33;;;;;;;11.32;4.90;;;23.40;78.90;;;;;;5052759;28;20053;-79
2021/07/08 10:05:00;;;;;;;11.95;4.55;;;23.70;78.80;;;;;;5052629;28;20036;-79
2021/07/08 10:07:27;;;;;;;10.93;4.53;;;24.30;76.40;;;;;;5053101;28;20027;-79
2021/07/08 10:09:53;;;;;;;10.35;4.50;;;23.80;76.10;;;;;;5056498;28;20025;-78
2021/07/08 10:12:18;;;;;;;12.45;5.00;;;23.90;77.10;;;;;;5057008;28;20021;-79
2021/07/08 10:14:47;;;;;;;11.27;4.70;;;23.70;76.20;;;;;;5056413;28;20029;-78
2021/07/08 10:17:15;;;;;;;11.30;5.00;;;23.50;77.40;;;;;;5056502;28;20021;-80
2021/07/08 10:19:46;;;;;;;10.82;4.40;;;23.30;74.80;;;;;;5056329;28;20024;-77
2021/07/08 10:22:12;;;;;;;13.35;5.20;;;24.90;72.10;;;;;;5054731;28;20021;-80
2021/07/08 10:24:38;;;;;;;11.40;5.10;;;24.30;72.40;;;;;;5056350;28;20107;-79
2021/07/08 10:27:06;;;;;;;10.68;5.70;;;25.10;70.60;;;;;;5056247;28;20033;-81
2021/07/08 10:29:33;;;;;;;11.27;4.40;;;25.90;66.40;;;;;;5056271;28;20025;-80
2021/07/08 10:31:59;;;;;;;9.40;4.07;;;26.20;66.30;;;;;;5055275;28;20029;-80
2021/07/08 10:34:25;;;;;;;8.85;4.32;;;27.40;63.00;;;;;;5054869;28;20024;-78
2021/07/08 10:36:53;;;;;;;11.98;4.70;;;27.70;61.80;;;;;;5056416;28;20032;-79
2021/07/08 10:39:21;;;;;;;10.35;4.55;;;27.60;59.00;;;;;;5054586;28;20123;-78
2021/07/08 10:41:52;;;;;;;13.70;4.20;;;26.50;62.10;;;;;;5056033;28;20017;-78
2021/07/08 10:44:39;;;;;;;9.23;4.28;;;26.80;59.90;;;;;;5056068;28;20035;-81
2021/07/08 10:47:06;;;;;;;9.95;4.18;;;26.80;58.90;;;;;;5054626;28;20489;-80
2021/07/08 10:49:40;;;;;;;10.27;4.22;;;26.90;58.80;;;;;;5055849;28;20488;-79
2021/07/08 10:52:39;;;;;;;10.20;4.07;;;27.80;56.60;;;;;;5055803;28;20485;-77
2021/07/08 10:55:05;;;;;;;9.75;4.18;;;29.60;52.30;;;;;;5056305;28;20032;-80
2021/07/08 10:57:38;;;;;;;8.93;3.80;;;30.10;51.00;;;;;;5054292;28;20049;-78
2021/07/08 11:00:07;;;;;;;11.93;4.07;;;28.70;51.60;;;;;;5055616;28;20033;-80
2021/07/08 11:02:50;;;;;;;11.30;3.90;;;27.60;54.70;;;;;;5056097;28;20052;-80
2021/07/08 11:05:52;;;;;;;9.15;3.70;;;28.20;53.20;;;;;;5054753;28;20021;-77
2021/07/08 11:09:04;;;;;;;9.65;3.88;;;27.80;53.60;;;;;;5052325;28;20045;-79
2021/07/08 11:11:29;;;;;;;10.20;4.07;;;28.10;53.70;;;;;;5038990;28;20468;-79
2021/07/08 11:13:58;;;;;;;11.00;4.00;;;27.60;54.70;;;;;;5054109;28;20033;-79
2021/07/08 11:16:46;;;;;;;9.40;3.72;;;27.90;54.80;;;;;;5055973;28;20009;-78
2021/07/08 11:19:37;;;;;;;12.75;5.50;;;29.80;50.00;;;;;;5055340;28;20411;-80
2021/07/08 11:22:12;;;;;;;10.05;3.63;;;28.70;49.00;;;;;;5055610;28;20025;-79
2021/07/08 11:24:38;;;;;;;8.27;3.58;;;28.60;49.50;;;;;;5055294;28;20056;-80
2021/07/08 11:27:09;;;;;;;9.40;3.92;;;28.30;53.10;;;;;;5053851;28;20057;-78
2021/07/08 11:29:37;;;;;;;9.23;3.90;;;28.70;51.30;;;;;;5055236;28;20025;-78
2021/07/08 11:32:32;;;;;;;10.70;4.05;;;29.20;51.20;;;;;;5055426;28;20040;-79
2021/07/08 11:35:13;;;;;;;8.63;3.83;;;28.60;51.00;;;;;;5053748;28;20116;-79
2021/07/08 11:37:40;;;;;;;8.48;3.50;;;29.40;49.40;;;;;;5054776;28;20044;-79
2021/07/08 11:40:11;;;;;;;11.82;4.25;;;30.90;48.20;;;;;;5053674;28;20031;-80
2021/07/08 11:42:39;;;;;;;7.95;3.50;;;30.10;46.50;;;;;;5054954;28;20025;-79
2021/07/08 11:45:15;;;;;;;8.63;3.45;;;29.60;50.70;;;;;;5055317;28;20025;-79
2021/07/08 11:47:46;;;;;;;9.77;3.75;;;28.40;48.50;;;;;;5054932;28;20032;-80
2021/07/08 11:50:23;;;;;;;9.02;3.60;;;28.00;50.30;;;;;;5054868;28;20102;-80
2021/07/08 11:53:10;;;;;;;9.82;3.70;;;27.70;51.10;;;;;;5053379;28;20043;-79
2021/07/08 11:55:38;;;;;;;10.20;3.33;;;27.10;53.60;;;;;;5054609;28;20032;-79
2021/07/08 11:58:06;;;;;;;8.70;3.40;;;29.30;50.40;;;;;;5053202;28;20542;-80
2021/07/08 12:00:47;;;;;;;7.75;3.50;;;30.30;47.20;;;;;;5053109;28;20485;-79
2021/07/08 12:03:44;;;;;;;9.20;3.33;;;29.10;47.60;;;;;;5054566;28;20512;-78
2021/07/08 12:06:19;;;;;;;9.45;3.80;;;29.80;48.50;;;;;;5054886;28;20086;-79
2021/07/08 12:08:55;;;;;;;7.80;3.60;;;29.10;47.00;;;;;;5053061;28;20049;-79
2021/07/08 12:11:40;;;;;;;7.43;3.45;;;29.00;48.40;;;;;;5054381;28;20029;-78
2021/07/08 12:14:07;;;;;;;7.15;3.10;;;29.70;47.20;;;;;;5054595;28;20494;-78
2021/07/08 12:16:35;;;;;;;8.27;3.30;;;28.70;46.90;;;;;;5054171;28;20025;-79
2021/07/08 12:19:14;;;;;;;7.60;3.25;;;28.30;47.30;;;;;;5052875;28;20148;-80
2021/07/08 12:21:44;;;;;;;14.52;3.67;;;28.40;48.90;;;;;;5052645;28;20398;-78
2021/07/08 12:24:33;;;;;;;7.35;3.45;;;28.00;50.00;;;;;;5053267;28;20025;-80
2021/07/08 12:27:04;;;;;;;7.70;3.20;;;28.20;49.90;;;;;;5052410;28;20040;-79
2021/07/08 12:29:32;;;;;;;7.78;3.00;;;29.30;48.10;;;;;;5054138;28;20024;-80
2021/07/08 12:32:15;;;;;;;8.80;3.20;;;30.10;46.40;;;;;;5053795;28;20021;-80
2021/07/08 12:34:59;;;;;;;8.25;3.35;;;32.60;45.00;;;;;;5053648;28;20504;-81
2021/07/08 12:37:36;;;;;;;8.50;3.05;;;34.20;41.40;;;;;;5052403;28;20048;-82
2021/07/08 12:40:19;;;;;;;8.95;3.10;;;32.10;43.00;;;;;;5034355;28;20025;-80
2021/07/08 12:42:48;;;;;;;8.27;3.20;;;29.50;45.80;;;;;;5031864;28;20030;-80
2021/07/08 12:45:19;;;;;;;10.77;3.20;;;27.20;49.20;;;;;;5034571;28;20025;-80
2021/07/08 12:47:53;;;;;;;7.63;3.05;;;27.20;52.00;;;;;;5033992;28;20470;-80
2021/07/08 12:50:40;;;;;;;8.15;3.58;;;27.70;51.00;;;;;;5032182;28;20030;-79
2021/07/08 12:53:14;;;;;;;8.07;3.58;;;26.10;52.80;;;;;;5033683;28;20474;-79
2021/07/08 12:55:40;;;;;;;9.47;3.83;;;26.10;54.40;;;;;;5033641;28;20018;-78
2021/07/08 12:58:07;;;;;;;8.57;3.40;;;24.90;56.10;;;;;;5033625;28;20025;-78
2021/07/08 13:00:34;;;;;;;9.30;3.13;;;25.40;58.40;;;;;;5033526;28;20025;-78